Latest Weather Observations for Ceduna

IDS60801

Issued at 9:01 am CST Wednesday 1 June 2016 (issued every 30 minutes, with the page automatically refreshed every 10 minutes)

About weather observations | Map of weather stations | Latest weather observations for SA | Other Formats
Station Details ID: 018012 Name: CEDUNA AMO Lat: -32.13 Lon: 133.70 Height: 15.3 m
Data from the previous 72 hours. | See also: Recent months at Ceduna
Date/Time
CST
Temp
°C
App
Temp
°C
Dew
Point
Rel
Hum
%
Delta-T
°C
Wind Press
QNH
hPa
Press
MSL
hPa
Rain
since 9 am
mm
Dir
 
Spd
km/h
Gust
km/h
Spd
kts
Gust
kts
01/09:00am 9.7 9.7 9.7 100 0.0 CALM 0 0 0 0 1024.8 1024.8 0.2
01/08:45am 9.3 9.2 9.3 100 0.0 CALM 0 0 0 0 1024.6 1024.6 0.2
01/08:30am 8.2 7.0 8.2 100 0.0 NNE 4 7 2 4 1024.4 1024.4 0.2
01/08:22am 7.3 5.3 7.3 100 0.0 NNE 7 9 4 5 1024.4 1024.4 0.2
01/08:07am 5.9 3.6 5.9 100 0.0 NNE 7 9 4 5 1024.3 1024.3 0.2
01/08:00am 5.4 3.0 5.4 100 0.0 NNE 7 9 4 5 1024.2 1024.2 0.2
01/07:30am 3.9 1.2 3.9 100 0.0 N 7 7 4 4 1023.9 1023.9 0.2
01/07:23am 4.2 1.8 4.2 100 0.0 N 6 7 3 4 1024.0 1024.0 0.2
01/07:00am 4.5 1.6 4.5 100 0.0 N 9 9 5 5 1023.9 1023.9 0.2
01/06:46am 4.5 2.9 4.5 100 0.0 NNE 2 7 1 4 1023.7 1023.7 0.2
01/06:30am 5.0 3.9 5.0 100 0.0 CALM 0 6 0 3 1023.6 1023.6 0.0
01/06:29am 5.0 3.5 5.0 100 0.0 NE 2 6 1 3 1023.6 1023.6 0.0
01/06:00am 5.2 4.1 5.2 100 0.0 CALM 0 6 0 3 1023.3 1023.3 0.0
01/05:38am 5.6 3.8 5.6 100 0.0 NNE 4 6 2 3 1023.1 1023.1 0.0
01/05:30am 5.9 3.8 5.9 100 0.0 NNE 6 6 3 3 1023.0 1023.0 0.0
01/05:00am 5.5 3.2 5.5 100 0.0 ENE 7 9 4 5 1022.7 1022.7 0.0
01/04:30am 4.9 2.6 4.9 100 0.0 ENE 6 9 3 5 1022.6 1022.6 0.0
01/04:11am 4.9 2.0 4.8 99 0.0 NE 9 9 5 5 1022.7 1022.7 0.0
01/04:00am 5.7 3.0 5.7 100 0.0 NE 9 11 5 6 1022.7 1022.7 0.0
01/03:30am 5.8 3.5 5.8 100 0.0 NE 7 9 4 5 1022.8 1022.8 0.0
01/03:02am 5.3 2.9 5.3 100 0.0 ENE 7 11 4 6 1022.9 1022.9 0.0
01/03:00am 5.4 2.7 5.4 100 0.0 ENE 9 11 5 6 1022.9 1022.9 0.0
01/02:45am 4.7 3.5 4.4 98 0.1 CALM 0 0 0 0 1022.8 1022.8 0.0
01/02:30am 5.9 4.9 5.8 99 0.0 CALM 0 0 0 0 1022.9 1022.9 0.0
01/02:00am 6.1 4.0 6.0 99 0.0 NNE 6 9 3 5 1022.8 1022.8 0.0
01/01:57am 6.0 3.9 5.9 99 0.0 NNE 6 9 3 5 1022.8 1022.8 0.0
01/01:30am 6.1 4.4 6.0 99 0.0 NE 4 7 2 4 1022.9 1022.9 0.0
01/01:00am 7.2 5.2 7.2 100 0.0 NE 7 9 4 5 1022.8 1022.8 0.0
01/12:30am 5.3 2.5 5.2 99 0.0 NE 9 11 5 6 1022.9 1022.9 0.0
01/12:06am 5.8 4.8 5.7 99 0.0 CALM 0 0 0 0 1022.9 1022.9 0.0
01/12:00am 5.7 4.7 5.6 99 0.0 CALM 0 0 0 0 1022.9 1022.9 0.0
 
Date/Time
CST
Temp
°C
App
Temp
°C
Dew
Point
Rel
Hum
%
Delta-T
°C
Wind Press
QNH
hPa
Press
MSL
hPa
Rain
since 9 am
mm
Dir
 
Spd
km/h
Gust
km/h
Spd
kts
Gust
kts
31/11:30pm 7.3 6.3 7.2 99 0.0 NNE 2 7 1 4 1023.1 1023.1 0.0
31/11:00pm 8.1 6.3 8.1 100 0.0 NNE 7 7 4 4 1022.9 1022.9 0.0
31/10:30pm 6.8 6.0 6.5 98 0.1 CALM 0 6 0 3 1023.1 1023.1 0.0
31/10:00pm 7.7 5.8 7.4 98 0.1 NNE 7 7 4 4 1023.2 1023.2 0.0
31/09:30pm 8.1 6.4 7.7 97 0.2 NNE 6 7 3 4 1023.1 1023.1 0.0
31/09:29pm 7.9 6.1 7.3 96 0.3 NNE 6 7 3 4 1023.1 1023.1 0.0
31/09:00pm 8.5 6.7 7.9 96 0.3 NNE 7 7 4 4 1023.0 1023.0 0.0
31/08:30pm 9.1 7.5 8.2 94 0.4 NE 6 7 3 4 1023.0 1023.0 0.0
31/08:00pm 9.5 7.9 8.9 96 0.3 NE 7 9 4 5 1022.8 1022.8 0.0
31/07:30pm 10.8 10.1 10.2 96 0.3 NE 4 6 2 3 1022.7 1022.7 0.0
31/07:00pm 12.1 12.2 10.3 89 0.9 CALM 0 0 0 0 1022.4 1022.4 0.0
31/06:30pm 13.2 12.0 11.6 90 0.8 SSW 9 11 5 6 1022.0 1022.0 0.0
31/06:00pm 14.1 12.9 12.7 91 0.8 SSW 11 13 6 7 1021.7 1021.7 0.0
31/05:30pm 15.3 13.5 13.2 87 1.2 SSW 15 19 8 10 1021.4 1021.4 0.0
31/05:00pm 16.4 14.3 11.3 72 2.7 SSW 13 17 7 9 1021.4 1021.4 0.0
31/04:30pm 16.9 14.1 11.2 69 3.1 SW 17 22 9 12 1021.2 1021.2 0.0
31/04:00pm 17.1 14.1 11.8 71 2.9 SW 19 22 10 12 1020.9 1020.9 0.0
31/03:30pm 17.2 13.7 10.8 66 3.4 SW 20 24 11 13 1020.6 1020.6 0.0
31/03:00pm 17.4 14.3 12.1 71 2.9 SW 20 24 11 13 1020.6 1020.6 0.0
31/02:30pm 17.7 14.5 10.1 61 4.0 SW 17 24 9 13 1020.6 1020.6 0.0
31/02:00pm 18.2 15.4 8.5 53 5.0 SW 13 17 7 9 1020.7 1020.7 0.0
31/01:30pm 18.7 15.8 8.1 50 5.4 W 13 17 7 9 1020.9 1020.9 0.0
31/01:00pm 18.3 15.1 6.8 47 5.7 W 13 19 7 10 1021.2 1021.2 0.0
31/12:30pm 18.7 15.8 9.5 55 4.8 WNW 15 20 8 11 1021.5 1021.5 0.0
31/12:00pm 18.2 15.3 9.5 57 4.6 WNW 15 20 8 11 1021.9 1021.9 0.0
31/11:30am 17.7 15.3 10.1 61 4.0 NNW 13 19 7 10 1022.2 1022.2 0.0
31/11:00am 17.2 14.9 11.9 71 2.9 NNW 15 20 8 11 1022.5 1022.5 0.0
31/10:30am 16.0 13.8 12.0 77 2.2 NNW 15 22 8 12 1022.6 1022.6 0.0
31/10:00am 14.6 12.7 11.9 84 1.5 N 13 17 7 9 1022.7 1022.7 0.0
31/09:30am 13.4 11.9 11.8 90 0.9 N 11 15 6 8 1022.7 1022.7 0.0
31/09:00am 11.4 10.3 10.6 95 0.4 N 7 11 4 6 1022.5 1022.5 0.0
31/08:30am 9.7 7.9 9.4 98 0.1 NNE 9 11 5 6 1022.3 1022.3 0.0
31/08:00am 7.8 5.6 7.8 100 0.0 NNE 9 9 5 5 1022.1 1022.1 0.0
31/07:30am 5.8 3.5 5.7 99 0.0 N 7 11 4 6 1021.8 1021.8 0.0
31/07:00am 5.6 3.2 5.2 97 0.2 N 7 7 4 4 1021.4 1021.4 0.0
31/06:30am 7.3 4.9 7.2 99 0.0 N 9 11 5 6 1021.2 1021.2 0.0
31/06:00am 7.3 4.9 7.0 98 0.1 N 9 11 5 6 1020.8 1020.8 0.0
31/05:30am 7.2 5.2 6.9 98 0.1 N 7 7 4 4 1020.5 1020.5 0.0
31/05:00am 8.0 5.8 7.7 98 0.1 N 9 11 5 6 1020.3 1020.3 0.0
31/04:30am 8.1 5.9 7.8 98 0.1 N 9 11 5 6 1020.3 1020.3 0.0
31/04:00am 8.0 5.4 7.6 97 0.2 N 11 11 6 6 1020.4 1020.4 0.0
31/03:30am 8.4 5.9 8.1 98 0.1 N 11 13 6 7 1020.4 1020.4 0.0
31/03:00am 8.7 6.2 8.4 98 0.1 N 11 11 6 6 1020.3 1020.3 0.0
31/02:30am 8.7 6.2 8.3 97 0.2 N 11 13 6 7 1020.1 1020.1 0.0
31/02:00am 9.3 7.3 8.8 97 0.2 N 9 11 5 6 1020.2 1020.2 0.0
31/01:30am 9.6 7.6 8.8 95 0.4 N 9 11 5 6 1020.2 1020.2 0.0
31/01:00am 10.5 9.1 9.4 93 0.5 N 7 7 4 4 1020.0 1020.0 0.0
31/12:30am 11.1 9.5 10.2 94 0.5 N 9 9 5 5 1020.1 1020.1 0.0
31/12:00am 11.5 9.9 10.2 92 0.7 N 9 13 5 7 1020.2 1020.2 0.0
 
Date/Time
CST
Temp
°C
App
Temp
°C
Dew
Point
Rel
Hum
%
Delta-T
°C
Wind Press
QNH
hPa
Press
MSL
hPa
Rain
since 9 am
mm
Dir
 
Spd
km/h
Gust
km/h
Spd
kts
Gust
kts
30/11:30pm 12.0 10.5 10.7 92 0.7 N 9 11 5 6 1020.3 1020.3 0.0
30/11:00pm 12.3 10.9 11.0 92 0.7 N 9 9 5 5 1020.2 1020.2 0.0
30/10:30pm 12.4 11.1 11.1 92 0.7 N 9 11 5 6 1020.3 1020.3 0.0
30/10:00pm 12.8 11.5 11.2 90 0.8 N 9 9 5 5 1020.2 1020.2 0.0
30/09:30pm 13.2 12.0 11.6 90 0.8 N 9 11 5 6 1020.1 1020.1 0.0
30/09:00pm 13.7 12.6 11.8 88 1.0 N 9 9 5 5 1019.9 1019.9 0.0
30/08:30pm 14.3 13.6 12.0 86 1.2 NW 7 9 4 5 1019.8 1019.8 0.0
30/08:00pm 14.8 14.3 11.9 83 1.6 WNW 6 7 3 4 1019.6 1019.6 0.0
30/07:30pm 15.1 14.5 12.2 83 1.6 W 7 9 4 5 1019.3 1019.3 0.0
30/07:00pm 15.5 14.4 12.1 80 1.9 W 9 13 5 7 1018.9 1018.9 0.0
30/06:30pm 15.6 13.8 12.0 79 2.0 W 13 17 7 9 1018.7 1018.7 0.0
30/06:00pm 14.9 14.0 11.5 80 1.8 WSW 7 9 4 5 1018.2 1018.2 0.0
30/05:30pm 15.3 14.0 11.3 77 2.1 WSW 9 13 5 7 1017.9 1017.9 0.0
30/05:00pm 16.3 14.7 11.5 73 2.6 W 11 15 6 8 1017.6 1017.6 0.0
30/04:30pm 17.2 14.4 11.5 69 3.1 WSW 17 22 9 12 1017.4 1017.4 0.0
30/04:00pm 16.4 14.4 12.6 78 2.1 WSW 15 20 8 11 1017.2 1017.2 0.0
30/03:30pm 17.0 13.2 12.5 75 2.5 WSW 24 30 13 16 1016.8 1016.8 0.0
30/03:00pm 17.0 14.0 12.7 76 2.4 SW 20 28 11 15 1016.6 1016.6 0.0
30/02:30pm 17.2 13.4 12.5 74 2.6 WSW 24 30 13 16 1016.6 1016.6 0.0
30/02:00pm 19.1 16.5 10.6 58 4.6 W 15 22 8 12 1016.7 1016.7 0.0
30/01:30pm 18.0 14.9 10.4 61 4.1 WNW 17 20 9 11 1016.9 1016.9 0.0
30/01:00pm 17.6 15.0 10.7 64 3.7 WNW 15 19 8 10 1017.2 1017.2 0.0
30/12:30pm 17.4 14.5 11.0 66 3.4 WNW 17 22 9 12 1017.6 1017.6 0.0
30/12:00pm 17.3 14.5 11.3 68 3.2 WNW 17 20 9 11 1018.1 1018.1 0.0
30/11:30am 17.8 15.2 12.0 69 3.2 NW 17 30 9 16 1018.4 1018.4 0.0
30/11:00am 17.4 15.1 12.9 75 2.5 NNW 17 22 9 12 1018.5 1018.5 0.0
30/10:30am 16.6 13.8 13.3 81 1.8 NNW 20 24 11 13 1018.7 1018.7 0.0
30/10:00am 14.7 11.6 12.2 85 1.4 NNW 20 24 11 13 1018.8 1018.8 0.0
30/09:30am 13.8 11.6 12.0 89 1.0 NNW 15 19 8 10 1018.7 1018.7 0.0
30/09:00am 12.5 10.2 11.6 94 0.5 NNW 15 19 8 10 1018.4 1018.4 0.0
30/08:30am 11.2 8.5 10.4 95 0.4 NNW 15 19 8 10 1018.3 1018.3 0.0
30/08:00am 10.3 7.4 9.7 96 0.3 N 15 17 8 9 1018.0 1018.0 0.0
30/07:30am 9.5 6.4 9.0 97 0.2 N 15 17 8 9 1017.7 1017.7 0.0
30/07:00am 9.2 6.4 8.7 97 0.2 N 13 15 7 8 1017.3 1017.3 0.0
30/06:30am 8.9 6.2 8.8 99 0.0 N 13 15 7 8 1017.0 1017.0 0.0
30/06:00am 8.1 5.9 7.8 98 0.1 N 9 11 5 6 1016.7 1016.7 0.0
30/05:30am 8.0 5.7 7.4 96 0.3 N 9 11 5 6 1016.5 1016.5 0.0
30/05:00am 10.3 7.8 9.8 97 0.3 NNW 13 17 7 9 1016.2 1016.2 0.0
30/04:30am 9.9 8.1 9.3 96 0.3 NNW 9 11 5 6 1016.1 1016.1 0.0
30/04:00am 9.8 7.7 9.7 99 0.1 NNW 11 13 6 7 1016.0 1016.0 0.0
30/03:30am 9.2 7.3 8.9 98 0.1 NNW 9 9 5 5 1015.9 1015.9 0.0
30/03:00am 10.0 7.6 9.9 99 0.1 NNW 13 15 7 8 1015.8 1015.8 0.0
30/02:30am 10.3 7.9 10.1 99 0.1 NNW 13 15 7 8 1015.8 1015.8 0.0
30/02:00am 10.3 7.9 10.0 98 0.2 NNW 13 15 7 8 1015.7 1015.7 0.0
30/01:30am 11.0 9.2 10.7 98 0.2 NW 11 13 6 7 1015.5 1015.5 0.0
30/01:00am 10.8 8.4 10.2 96 0.3 NNW 13 13 7 7 1015.6 1015.6 0.0
30/12:30am 11.8 9.7 11.2 96 0.3 NW 13 13 7 7 1015.6 1015.6 0.0
30/12:00am 12.4 10.5 11.8 96 0.3 NW 13 15 7 8 1015.5 1015.5 0.0
 
Date/Time
CST
Temp
°C
App
Temp
°C
Dew
Point
Rel
Hum
%
Delta-T
°C
Wind Press
QNH
hPa
Press
MSL
hPa
Rain
since 9 am
mm
Dir
 
Spd
km/h
Gust
km/h
Spd
kts
Gust
kts
29/11:30pm 12.8 11.0 12.0 95 0.4 NNW 13 13 7 7 1015.6 1015.6 0.0
29/11:00pm 12.0 10.6 10.9 93 0.6 NW 9 11 5 6 1015.3 1015.3 0.0
29/10:30pm 12.7 11.2 11.8 94 0.5 NW 11 13 6 7 1015.2 1015.2 0.0
29/10:00pm 13.7 12.7 12.3 91 0.8 NW 9 11 5 6 1015.2 1015.2 0.0
29/09:30pm 14.4 12.8 12.8 90 0.9 W 13 15 7 8 1015.0 1015.0 0.0
29/09:00pm 15.2 13.3 12.9 86 1.3 W 15 19 8 10 1014.7 1014.7 0.0
29/08:30pm 15.7 13.6 12.3 80 1.9 WNW 15 20 8 11 1014.9 1014.9 0.0
29/08:00pm 15.1 12.2 9.7 70 2.8 NNW 15 26 8 14 1014.2 1014.2 0.0
29/07:30pm 12.7 10.0 9.0 78 1.9 ENE 13 13 7 7 1013.5 1013.5 0.0
29/07:00pm 12.6 10.1 9.8 83 1.4 E 13 15 7 8 1013.2 1013.2 0.0
29/06:30pm 14.5 13.2 10.1 75 2.3 ENE 7 9 4 5 1012.9 1012.9 0.0
29/06:00pm 14.9 11.6 9.5 70 2.8 ENE 17 19 9 10 1012.6 1012.6 0.0
29/05:30pm 17.2 14.6 9.4 60 4.1 NE 13 15 7 8 1012.6 1012.6 0.0
29/05:00pm 19.0 15.8 8.6 51 5.4 NE 15 19 8 10 1012.4 1012.4 0.0
29/04:30pm 21.1 19.7 9.7 48 6.1 NNE 7 9 4 5 1012.5 1012.5 0.0
29/04:00pm 19.9 17.9 10.3 54 5.2 NE 11 15 6 8 1012.7 1012.7 0.0
29/03:30pm 20.5 17.0 7.2 42 6.8 NNE 15 22 8 12 1012.6 1012.6 0.0
29/03:00pm 21.1 17.3 7.7 42 6.9 NNE 17 24 9 13 1012.9 1012.9 0.0
29/02:30pm 21.6 18.1 7.4 40 7.3 N 15 22 8 12 1013.1 1013.1 0.0
29/02:00pm 20.8 17.0 9.1 47 6.2 N 19 26 10 14 1013.5 1013.5 0.0
29/01:30pm 19.9 16.4 8.6 48 5.9 N 17 24 9 13 1013.9 1013.9 0.0
29/01:00pm 20.1 15.7 9.1 49 5.8 N 22 32 12 17 1014.0 1014.0 0.0
29/12:30pm 19.7 14.9 8.7 49 5.7 N 24 32 13 17 1014.5 1014.5 0.0
29/12:00pm 19.6 14.0 8.9 50 5.6 N 28 37 15 20 1015.1 1015.1 0.0
29/11:30am 18.7 12.3 8.7 52 5.2 N 32 43 17 23 1015.4 1015.4 0.0
29/11:00am 17.5 11.6 8.9 57 4.5 N 30 39 16 21 1015.9 1015.9 0.0
29/10:30am 16.2 10.6 8.7 61 3.8 NNE 28 37 15 20 1016.2 1016.2 0.0
29/10:00am 14.9 9.3 8.6 66 3.2 NNE 28 33 15 18 1016.3 1016.3 0.0
29/09:30am 14.6 9.1 9.0 69 2.8 NNE 28 35 15 19 1016.3 1016.3 0.0

Other Formats:

Comma delimited format used in spreadsheet applications
http://www.bom.gov.au/fwo/IDS60801/IDS60801.94653.axf

JavaScript Object Notation format (JSON) in row-major order
http://www.bom.gov.au/fwo/IDS60801/IDS60801.94653.json